« Back
NWS Peachtree City, Ga » Text Product » ATL Terminal Aerodrome Forecast


Printer-friendly Version
Current Version              Previous Versions:   1  2  3  4  5  6  7  8  9  

Terminal Aerodrome Forecast

170
FTUS42 KFFC 181100
TAFATL
TAF
KATL 181123Z 1812/1918 01004KT P6SM SCT008
      TEMPO 1812/1814 6SM BR BKN006
     FM181400 04006KT P6SM SCT025
     FM181700 34007KT P6SM SCT045
     FM190500 02006KT P6SM SCT025
     FM190900 05006KT P6SM OVC010
     FM191500 08008KT P6SM OVC020=

USA.gov is the U.S. government's official web portal to all federal, state and local government web resources and services.